sensor_id;sensor_type;location;lat;lon;timestamp;P1;durP1;ratioP1;P2;durP2;ratioP2
72611;SDS011;60655;52.182;4.474;2023-02-15T00:00:30;53.58;;;24.00;;
72611;SDS011;60655;52.182;4.474;2023-02-15T00:02:31;52.42;;;22.50;;
72611;SDS011;60655;52.182;4.474;2023-02-15T00:04:32;55.10;;;23.65;;
72611;SDS011;60655;52.182;4.474;2023-02-15T00:06:48;61.72;;;24.83;;
72611;SDS011;60655;52.182;4.474;2023-02-15T00:08:50;52.33;;;23.40;;
72611;SDS011;60655;52.182;4.474;2023-02-15T00:10:51;53.50;;;24.10;;
72611;SDS011;60655;52.182;4.474;2023-02-15T00:12:52;55.90;;;25.42;;
72611;SDS011;60655;52.182;4.474;2023-02-15T00:14:53;59.53;;;25.60;;
72611;SDS011;60655;52.182;4.474;2023-02-15T00:16:54;54.08;;;23.33;;
72611;SDS011;60655;52.182;4.474;2023-02-15T00:18:56;53.72;;;24.17;;
72611;SDS011;60655;52.182;4.474;2023-02-15T00:20:56;59.75;;;24.10;;
72611;SDS011;60655;52.182;4.474;2023-02-15T00:22:58;58.92;;;24.35;;
72611;SDS011;60655;52.182;4.474;2023-02-15T00:25:00;53.38;;;22.48;;
72611;SDS011;60655;52.182;4.474;2023-02-15T00:27:01;54.47;;;23.80;;
72611;SDS011;60655;52.182;4.474;2023-02-15T00:29:02;55.88;;;24.55;;
72611;SDS011;60655;52.182;4.474;2023-02-15T00:31:09;58.45;;;26.00;;
72611;SDS011;60655;52.182;4.474;2023-02-15T00:33:11;52.50;;;24.05;;
72611;SDS011;60655;52.182;4.474;2023-02-15T00:35:12;55.42;;;24.00;;
72611;SDS011;60655;52.182;4.474;2023-02-15T00:37:13;54.17;;;24.25;;
72611;SDS011;60655;52.182;4.474;2023-02-15T00:39:15;60.53;;;24.83;;
72611;SDS011;60655;52.182;4.474;2023-02-15T00:41:17;53.63;;;23.75;;
72611;SDS011;60655;52.182;4.474;2023-02-15T00:43:18;57.60;;;23.20;;
72611;SDS011;60655;52.182;4.474;2023-02-15T00:45:18;53.10;;;23.77;;
72611;SDS011;60655;52.182;4.474;2023-02-15T00:47:21;59.22;;;24.05;;
72611;SDS011;60655;52.182;4.474;2023-02-15T00:49:22;57.95;;;24.67;;
72611;SDS011;60655;52.182;4.474;2023-02-15T00:51:23;54.58;;;23.88;;
72611;SDS011;60655;52.182;4.474;2023-02-15T00:53:25;55.90;;;24.02;;
72611;SDS011;60655;52.182;4.474;2023-02-15T00:55:27;56.05;;;25.90;;
72611;SDS011;60655;52.182;4.474;2023-02-15T00:57:28;53.70;;;25.02;;
72611;SDS011;60655;52.182;4.474;2023-02-15T00:59:29;60.72;;;25.15;;
72611;SDS011;60655;52.182;4.474;2023-02-15T01:01:30;55.08;;;25.15;;
72611;SDS011;60655;52.182;4.474;2023-02-15T01:03:32;57.03;;;24.23;;
72611;SDS011;60655;52.182;4.474;2023-02-15T01:05:34;60.45;;;27.65;;
72611;SDS011;60655;52.182;4.474;2023-02-15T01:09:36;58.20;;;24.88;;
72611;SDS011;60655;52.182;4.474;2023-02-15T01:11:37;52.03;;;23.15;;
72611;SDS011;60655;52.182;4.474;2023-02-15T01:13:38;57.88;;;24.85;;
72611;SDS011;60655;52.182;4.474;2023-02-15T01:15:40;52.20;;;23.73;;
72611;SDS011;60655;52.182;4.474;2023-02-15T01:17:40;58.92;;;24.55;;
72611;SDS011;60655;52.182;4.474;2023-02-15T01:19:41;52.63;;;24.17;;
72611;SDS011;60655;52.182;4.474;2023-02-15T01:21:42;59.10;;;25.48;;
72611;SDS011;60655;52.182;4.474;2023-02-15T01:23:43;55.83;;;23.20;;
72611;SDS011;60655;52.182;4.474;2023-02-15T01:25:44;54.17;;;24.90;;
72611;SDS011;60655;52.182;4.474;2023-02-15T01:27:46;54.28;;;23.80;;
72611;SDS011;60655;52.182;4.474;2023-02-15T01:29:47;61.95;;;24.45;;
72611;SDS011;60655;52.182;4.474;2023-02-15T01:31:48;54.58;;;22.83;;
72611;SDS011;60655;52.182;4.474;2023-02-15T01:33:49;53.63;;;24.08;;
72611;SDS011;60655;52.182;4.474;2023-02-15T01:35:59;55.17;;;23.27;;
72611;SDS011;60655;52.182;4.474;2023-02-15T01:38:00;54.58;;;23.38;;
72611;SDS011;60655;52.182;4.474;2023-02-15T01:40:02;55.55;;;25.45;;
72611;SDS011;60655;52.182;4.474;2023-02-15T01:42:09;57.13;;;24.65;;
72611;SDS011;60655;52.182;4.474;2023-02-15T01:46:50;55.85;;;23.80;;
72611;SDS011;60655;52.182;4.474;2023-02-15T01:49:00;51.88;;;21.58;;
72611;SDS011;60655;52.182;4.474;2023-02-15T01:51:05;54.05;;;21.88;;
72611;SDS011;60655;52.182;4.474;2023-02-15T01:55:23;48.30;;;21.67;;
72611;SDS011;60655;52.182;4.474;2023-02-15T01:57:27;53.20;;;22.40;;
72611;SDS011;60655;52.182;4.474;2023-02-15T01:59:29;52.60;;;23.08;;
72611;SDS011;60655;52.182;4.474;2023-02-15T02:01:32;55.05;;;22.92;;
72611;SDS011;60655;52.182;4.474;2023-02-15T02:06:03;53.08;;;23.50;;
72611;SDS011;60655;52.182;4.474;2023-02-15T02:08:04;50.38;;;21.13;;
72611;SDS011;60655;52.182;4.474;2023-02-15T02:12:07;47.83;;;19.65;;
72611;SDS011;60655;52.182;4.474;2023-02-15T02:14:09;49.20;;;21.60;;
72611;SDS011;60655;52.182;4.474;2023-02-15T02:16:12;44.58;;;19.65;;
72611;SDS011;60655;52.182;4.474;2023-02-15T02:21:01;52.40;;;21.38;;
72611;SDS011;60655;52.182;4.474;2023-02-15T02:23:16;47.85;;;21.42;;
72611;SDS011;60655;52.182;4.474;2023-02-15T02:25:35;48.47;;;21.10;;
72611;SDS011;60655;52.182;4.474;2023-02-15T02:35:10;43.92;;;19.35;;
72611;SDS011;60655;52.182;4.474;2023-02-15T02:41:34;40.90;;;19.33;;
72611;SDS011;60655;52.182;4.474;2023-02-15T02:43:59;42.45;;;19.73;;
72611;SDS011;60655;52.182;4.474;2023-02-15T02:48:16;46.08;;;20.65;;
72611;SDS011;60655;52.182;4.474;2023-02-15T02:50:23;44.85;;;20.10;;
72611;SDS011;60655;52.182;4.474;2023-02-15T02:52:43;45.97;;;19.95;;
72611;SDS011;60655;52.182;4.474;2023-02-15T02:54:48;42.78;;;18.60;;
72611;SDS011;60655;52.182;4.474;2023-02-15T02:56:49;38.08;;;17.73;;
72611;SDS011;60655;52.182;4.474;2023-02-15T02:58:58;41.28;;;18.63;;
72611;SDS011;60655;52.182;4.474;2023-02-15T03:01:04;40.92;;;18.50;;
72611;SDS011;60655;52.182;4.474;2023-02-15T03:03:20;37.92;;;18.30;;
72611;SDS011;60655;52.182;4.474;2023-02-15T03:05:22;38.28;;;18.92;;
72611;SDS011;60655;52.182;4.474;2023-02-15T03:07:26;45.17;;;19.08;;
72611;SDS011;60655;52.182;4.474;2023-02-15T03:09:29;41.22;;;19.30;;
72611;SDS011;60655;52.182;4.474;2023-02-15T03:11:44;36.33;;;17.63;;
72611;SDS011;60655;52.182;4.474;2023-02-15T03:13:45;39.70;;;18.02;;
72611;SDS011;60655;52.182;4.474;2023-02-15T03:15:49;41.88;;;19.73;;
72611;SDS011;60655;52.182;4.474;2023-02-15T03:18:11;36.97;;;17.60;;
72611;SDS011;60655;52.182;4.474;2023-02-15T03:20:14;39.72;;;17.35;;
72611;SDS011;60655;52.182;4.474;2023-02-15T03:22:28;46.10;;;18.42;;
72611;SDS011;60655;52.182;4.474;2023-02-15T03:26:51;38.80;;;18.10;;
72611;SDS011;60655;52.182;4.474;2023-02-15T03:28:55;40.95;;;17.73;;
72611;SDS011;60655;52.182;4.474;2023-02-15T03:31:00;36.20;;;16.85;;
72611;SDS011;60655;52.182;4.474;2023-02-15T03:33:04;39.53;;;18.10;;
72611;SDS011;60655;52.182;4.474;2023-02-15T03:35:08;40.80;;;18.02;;
72611;SDS011;60655;52.182;4.474;2023-02-15T03:37:18;36.72;;;17.80;;
72611;SDS011;60655;52.182;4.474;2023-02-15T03:39:47;36.78;;;17.17;;
72611;SDS011;60655;52.182;4.474;2023-02-15T03:44:18;32.90;;;16.90;;
72611;SDS011;60655;52.182;4.474;2023-02-15T03:46:32;36.30;;;16.58;;
72611;SDS011;60655;52.182;4.474;2023-02-15T03:48:38;40.15;;;17.33;;
72611;SDS011;60655;52.182;4.474;2023-02-15T03:50:42;32.70;;;16.48;;
72611;SDS011;60655;52.182;4.474;2023-02-15T03:53:02;33.67;;;16.17;;
72611;SDS011;60655;52.182;4.474;2023-02-15T03:55:05;34.17;;;16.20;;
72611;SDS011;60655;52.182;4.474;2023-02-15T03:57:07;33.00;;;15.30;;
72611;SDS011;60655;52.182;4.474;2023-02-15T03:59:29;35.42;;;15.80;;
72611;SDS011;60655;52.182;4.474;2023-02-15T04:02:11;32.72;;;15.32;;
72611;SDS011;60655;52.182;4.474;2023-02-15T04:04:23;31.88;;;15.18;;
72611;SDS011;60655;52.182;4.474;2023-02-15T04:06:25;35.30;;;16.40;;
72611;SDS011;60655;52.182;4.474;2023-02-15T04:08:26;37.47;;;15.98;;
72611;SDS011;60655;52.182;4.474;2023-02-15T04:10:47;35.70;;;15.63;;
72611;SDS011;60655;52.182;4.474;2023-02-15T04:12:54;35.03;;;15.75;;
72611;SDS011;60655;52.182;4.474;2023-02-15T04:14:55;33.95;;;15.50;;
72611;SDS011;60655;52.182;4.474;2023-02-15T04:17:14;31.55;;;14.45;;
72611;SDS011;60655;52.182;4.474;2023-02-15T04:19:15;34.63;;;15.95;;
72611;SDS011;60655;52.182;4.474;2023-02-15T04:21:34;31.75;;;16.15;;
72611;SDS011;60655;52.182;4.474;2023-02-15T04:23:54;31.83;;;14.40;;
72611;SDS011;60655;52.182;4.474;2023-02-15T04:26:14;32.65;;;14.18;;
72611;SDS011;60655;52.182;4.474;2023-02-15T04:28:15;33.75;;;15.02;;
72611;SDS011;60655;52.182;4.474;2023-02-15T04:30:16;34.47;;;15.73;;
72611;SDS011;60655;52.182;4.474;2023-02-15T04:32:19;31.60;;;15.02;;
72611;SDS011;60655;52.182;4.474;2023-02-15T04:34:20;29.17;;;14.52;;
72611;SDS011;60655;52.182;4.474;2023-02-15T04:36:21;30.48;;;14.98;;
72611;SDS011;60655;52.182;4.474;2023-02-15T04:38:22;33.22;;;14.45;;
72611;SDS011;60655;52.182;4.474;2023-02-15T04:42:24;30.17;;;14.00;;
72611;SDS011;60655;52.182;4.474;2023-02-15T04:44:26;33.58;;;14.50;;
72611;SDS011;60655;52.182;4.474;2023-02-15T04:46:27;36.13;;;15.32;;
72611;SDS011;60655;52.182;4.474;2023-02-15T04:48:28;37.55;;;15.65;;
72611;SDS011;60655;52.182;4.474;2023-02-15T04:50:29;33.63;;;15.75;;
72611;SDS011;60655;52.182;4.474;2023-02-15T04:52:30;31.73;;;15.18;;
72611;SDS011;60655;52.182;4.474;2023-02-15T04:54:31;30.67;;;15.25;;
72611;SDS011;60655;52.182;4.474;2023-02-15T04:56:32;37.55;;;16.70;;
72611;SDS011;60655;52.182;4.474;2023-02-15T04:58:35;36.85;;;16.45;;
72611;SDS011;60655;52.182;4.474;2023-02-15T05:00:37;34.03;;;16.23;;
72611;SDS011;60655;52.182;4.474;2023-02-15T05:02:39;32.40;;;15.27;;
72611;SDS011;60655;52.182;4.474;2023-02-15T05:04:40;38.00;;;17.15;;
72611;SDS011;60655;52.182;4.474;2023-02-15T05:06:41;34.70;;;15.65;;
72611;SDS011;60655;52.182;4.474;2023-02-15T05:08:42;35.90;;;16.48;;
72611;SDS011;60655;52.182;4.474;2023-02-15T05:10:43;40.15;;;17.00;;
72611;SDS011;60655;52.182;4.474;2023-02-15T05:12:44;40.55;;;18.02;;
72611;SDS011;60655;52.182;4.474;2023-02-15T05:14:45;41.35;;;18.42;;
72611;SDS011;60655;52.182;4.474;2023-02-15T05:16:46;44.28;;;18.63;;
72611;SDS011;60655;52.182;4.474;2023-02-15T05:18:47;54.08;;;21.00;;
72611;SDS011;60655;52.182;4.474;2023-02-15T05:20:48;49.53;;;20.55;;
72611;SDS011;60655;52.182;4.474;2023-02-15T05:22:53;52.55;;;21.25;;
72611;SDS011;60655;52.182;4.474;2023-02-15T05:24:54;51.28;;;22.48;;
72611;SDS011;60655;52.182;4.474;2023-02-15T05:27:14;56.92;;;21.63;;
72611;SDS011;60655;52.182;4.474;2023-02-15T05:29:34;49.33;;;19.98;;
72611;SDS011;60655;52.182;4.474;2023-02-15T05:33:37;51.72;;;20.25;;
72611;SDS011;60655;52.182;4.474;2023-02-15T05:35:39;51.35;;;20.52;;
72611;SDS011;60655;52.182;4.474;2023-02-15T05:37:40;50.55;;;20.90;;
72611;SDS011;60655;52.182;4.474;2023-02-15T05:39:41;47.53;;;20.92;;
72611;SDS011;60655;52.182;4.474;2023-02-15T05:41:42;52.13;;;21.15;;
72611;SDS011;60655;52.182;4.474;2023-02-15T05:43:43;51.88;;;20.92;;
72611;SDS011;60655;52.182;4.474;2023-02-15T05:45:45;52.40;;;20.10;;
72611;SDS011;60655;52.182;4.474;2023-02-15T05:47:47;48.20;;;20.58;;
72611;SDS011;60655;52.182;4.474;2023-02-15T05:49:48;53.03;;;21.58;;
72611;SDS011;60655;52.182;4.474;2023-02-15T05:51:49;52.72;;;22.83;;
72611;SDS011;60655;52.182;4.474;2023-02-15T05:53:50;51.60;;;21.85;;
72611;SDS011;60655;52.182;4.474;2023-02-15T05:55:51;58.38;;;22.48;;
72611;SDS011;60655;52.182;4.474;2023-02-15T05:59:53;46.65;;;18.95;;
72611;SDS011;60655;52.182;4.474;2023-02-15T06:01:54;48.90;;;19.63;;
72611;SDS011;60655;52.182;4.474;2023-02-15T06:03:55;54.05;;;20.77;;
72611;SDS011;60655;52.182;4.474;2023-02-15T06:05:56;51.05;;;21.30;;
72611;SDS011;60655;52.182;4.474;2023-02-15T06:07:57;50.05;;;20.10;;
72611;SDS011;60655;52.182;4.474;2023-02-15T06:09:58;55.10;;;20.48;;
72611;SDS011;60655;52.182;4.474;2023-02-15T06:11:59;48.20;;;20.35;;
72611;SDS011;60655;52.182;4.474;2023-02-15T06:14:00;47.75;;;20.15;;
72611;SDS011;60655;52.182;4.474;2023-02-15T06:16:01;50.85;;;21.33;;
72611;SDS011;60655;52.182;4.474;2023-02-15T06:18:02;47.28;;;19.42;;
72611;SDS011;60655;52.182;4.474;2023-02-15T06:20:04;51.30;;;21.38;;
72611;SDS011;60655;52.182;4.474;2023-02-15T06:22:05;48.13;;;20.45;;
72611;SDS011;60655;52.182;4.474;2023-02-15T06:24:08;50.40;;;19.65;;
72611;SDS011;60655;52.182;4.474;2023-02-15T06:26:09;49.75;;;20.05;;
72611;SDS011;60655;52.182;4.474;2023-02-15T06:28:10;51.33;;;20.38;;
72611;SDS011;60655;52.182;4.474;2023-02-15T06:30:11;47.92;;;21.05;;
72611;SDS011;60655;52.182;4.474;2023-02-15T06:32:14;54.15;;;20.75;;
72611;SDS011;60655;52.182;4.474;2023-02-15T06:34:15;53.28;;;21.23;;
72611;SDS011;60655;52.182;4.474;2023-02-15T06:36:16;47.50;;;21.40;;
72611;SDS011;60655;52.182;4.474;2023-02-15T06:38:17;54.58;;;20.80;;
72611;SDS011;60655;52.182;4.474;2023-02-15T06:40:18;47.00;;;19.92;;
72611;SDS011;60655;52.182;4.474;2023-02-15T06:42:19;47.13;;;19.58;;
72611;SDS011;60655;52.182;4.474;2023-02-15T06:44:20;51.22;;;20.05;;
72611;SDS011;60655;52.182;4.474;2023-02-15T06:46:21;46.80;;;21.17;;
72611;SDS011;60655;52.182;4.474;2023-02-15T06:48:22;50.15;;;21.70;;
72611;SDS011;60655;52.182;4.474;2023-02-15T06:50:23;52.58;;;21.38;;
72611;SDS011;60655;52.182;4.474;2023-02-15T06:52:24;48.42;;;20.35;;
72611;SDS011;60655;52.182;4.474;2023-02-15T06:54:25;43.85;;;19.10;;
72611;SDS011;60655;52.182;4.474;2023-02-15T06:56:27;52.55;;;22.33;;
72611;SDS011;60655;52.182;4.474;2023-02-15T06:58:28;47.38;;;20.08;;
72611;SDS011;60655;52.182;4.474;2023-02-15T07:02:30;45.25;;;19.60;;
72611;SDS011;60655;52.182;4.474;2023-02-15T07:04:31;47.78;;;19.98;;
72611;SDS011;60655;52.182;4.474;2023-02-15T07:06:33;50.85;;;21.02;;
72611;SDS011;60655;52.182;4.474;2023-02-15T07:08:34;55.22;;;21.33;;
72611;SDS011;60655;52.182;4.474;2023-02-15T07:10:36;60.88;;;22.95;;
72611;SDS011;60655;52.182;4.474;2023-02-15T07:12:37;52.50;;;22.73;;
72611;SDS011;60655;52.182;4.474;2023-02-15T07:14:46;60.83;;;22.90;;
72611;SDS011;60655;52.182;4.474;2023-02-15T07:16:47;74.47;;;31.88;;
72611;SDS011;60655;52.182;4.474;2023-02-15T07:18:48;73.40;;;27.45;;
72611;SDS011;60655;52.182;4.474;2023-02-15T07:22:50;49.10;;;20.52;;
72611;SDS011;60655;52.182;4.474;2023-02-15T07:24:51;47.50;;;20.05;;
72611;SDS011;60655;52.182;4.474;2023-02-15T07:26:55;48.53;;;21.35;;
72611;SDS011;60655;52.182;4.474;2023-02-15T07:28:55;45.50;;;19.40;;
72611;SDS011;60655;52.182;4.474;2023-02-15T07:30:56;54.20;;;21.83;;
72611;SDS011;60655;52.182;4.474;2023-02-15T07:35:17;44.80;;;17.55;;
72611;SDS011;60655;52.182;4.474;2023-02-15T07:37:18;49.92;;;20.08;;
72611;SDS011;60655;52.182;4.474;2023-02-15T07:39:19;48.67;;;20.60;;
72611;SDS011;60655;52.182;4.474;2023-02-15T07:43:21;58.58;;;25.02;;
72611;SDS011;60655;52.182;4.474;2023-02-15T07:45:22;58.05;;;23.63;;
72611;SDS011;60655;52.182;4.474;2023-02-15T07:47:23;56.25;;;22.77;;
72611;SDS011;60655;52.182;4.474;2023-02-15T07:49:23;60.00;;;22.48;;
72611;SDS011;60655;52.182;4.474;2023-02-15T07:51:24;50.97;;;22.17;;
72611;SDS011;60655;52.182;4.474;2023-02-15T07:53:26;52.10;;;21.20;;
72611;SDS011;60655;52.182;4.474;2023-02-15T07:55:27;52.25;;;22.40;;
72611;SDS011;60655;52.182;4.474;2023-02-15T07:57:28;47.60;;;20.52;;
72611;SDS011;60655;52.182;4.474;2023-02-15T08:01:33;45.50;;;17.90;;
72611;SDS011;60655;52.182;4.474;2023-02-15T08:03:36;48.65;;;20.88;;
72611;SDS011;60655;52.182;4.474;2023-02-15T08:05:37;49.90;;;21.17;;
72611;SDS011;60655;52.182;4.474;2023-02-15T08:07:39;53.50;;;21.05;;
72611;SDS011;60655;52.182;4.474;2023-02-15T08:09:40;57.03;;;21.38;;
72611;SDS011;60655;52.182;4.474;2023-02-15T08:11:41;48.88;;;20.15;;
72611;SDS011;60655;52.182;4.474;2023-02-15T08:13:43;44.38;;;21.90;;
72611;SDS011;60655;52.182;4.474;2023-02-15T08:15:54;50.13;;;21.27;;
72611;SDS011;60655;52.182;4.474;2023-02-15T08:17:55;44.10;;;19.48;;
72611;SDS011;60655;52.182;4.474;2023-02-15T08:19:56;50.42;;;20.08;;
72611;SDS011;60655;52.182;4.474;2023-02-15T08:22:06;47.00;;;20.05;;
72611;SDS011;60655;52.182;4.474;2023-02-15T08:24:08;44.47;;;19.13;;
72611;SDS011;60655;52.182;4.474;2023-02-15T08:26:11;51.75;;;20.42;;
72611;SDS011;60655;52.182;4.474;2023-02-15T08:28:12;50.72;;;20.42;;
72611;SDS011;60655;52.182;4.474;2023-02-15T08:30:13;46.67;;;20.50;;
72611;SDS011;60655;52.182;4.474;2023-02-15T08:32:14;48.75;;;22.27;;
72611;SDS011;60655;52.182;4.474;2023-02-15T08:34:16;49.85;;;21.55;;
72611;SDS011;60655;52.182;4.474;2023-02-15T08:36:20;49.03;;;20.83;;
72611;SDS011;60655;52.182;4.474;2023-02-15T08:38:22;54.90;;;22.38;;
72611;SDS011;60655;52.182;4.474;2023-02-15T08:40:23;51.17;;;22.27;;
72611;SDS011;60655;52.182;4.474;2023-02-15T08:42:24;48.33;;;20.98;;
72611;SDS011;60655;52.182;4.474;2023-02-15T08:44:25;51.33;;;22.10;;
72611;SDS011;60655;52.182;4.474;2023-02-15T08:46:27;46.83;;;20.58;;
72611;SDS011;60655;52.182;4.474;2023-02-15T08:48:30;44.05;;;20.25;;
72611;SDS011;60655;52.182;4.474;2023-02-15T08:52:32;50.17;;;20.67;;
72611;SDS011;60655;52.182;4.474;2023-02-15T08:54:33;51.30;;;22.02;;
72611;SDS011;60655;52.182;4.474;2023-02-15T08:56:37;51.15;;;20.80;;
72611;SDS011;60655;52.182;4.474;2023-02-15T08:58:40;53.28;;;22.20;;
72611;SDS011;60655;52.182;4.474;2023-02-15T09:00:41;52.78;;;21.95;;
72611;SDS011;60655;52.182;4.474;2023-02-15T09:02:42;51.55;;;22.17;;
72611;SDS011;60655;52.182;4.474;2023-02-15T09:04:43;51.47;;;21.88;;
72611;SDS011;60655;52.182;4.474;2023-02-15T09:06:45;47.25;;;22.17;;
72611;SDS011;60655;52.182;4.474;2023-02-15T09:08:48;47.78;;;22.05;;
72611;SDS011;60655;52.182;4.474;2023-02-15T09:10:49;54.78;;;23.35;;
72611;SDS011;60655;52.182;4.474;2023-02-15T09:12:51;48.47;;;21.85;;
72611;SDS011;60655;52.182;4.474;2023-02-15T09:14:52;53.95;;;24.13;;
72611;SDS011;60655;52.182;4.474;2023-02-15T09:16:53;52.80;;;23.15;;
72611;SDS011;60655;52.182;4.474;2023-02-15T09:18:55;46.53;;;21.17;;
72611;SDS011;60655;52.182;4.474;2023-02-15T09:21:03;54.38;;;22.90;;
72611;SDS011;60655;52.182;4.474;2023-02-15T09:23:07;52.10;;;23.08;;
72611;SDS011;60655;52.182;4.474;2023-02-15T09:25:07;56.13;;;22.42;;
72611;SDS011;60655;52.182;4.474;2023-02-15T09:27:08;49.97;;;23.75;;
72611;SDS011;60655;52.182;4.474;2023-02-15T09:29:10;48.47;;;20.67;;
72611;SDS011;60655;52.182;4.474;2023-02-15T09:31:15;54.25;;;24.15;;
72611;SDS011;60655;52.182;4.474;2023-02-15T09:33:18;51.72;;;21.00;;
72611;SDS011;60655;52.182;4.474;2023-02-15T09:35:19;54.40;;;22.15;;
72611;SDS011;60655;52.182;4.474;2023-02-15T09:39:22;51.20;;;20.70;;
72611;SDS011;60655;52.182;4.474;2023-02-15T09:43:55;49.10;;;21.35;;
72611;SDS011;60655;52.182;4.474;2023-02-15T09:46:21;48.83;;;21.15;;
72611;SDS011;60655;52.182;4.474;2023-02-15T09:48:32;55.10;;;24.17;;
72611;SDS011;60655;52.182;4.474;2023-02-15T09:59:45;50.22;;;22.63;;
72611;SDS011;60655;52.182;4.474;2023-02-15T10:02:02;57.85;;;25.33;;
72611;SDS011;60655;52.182;4.474;2023-02-15T10:06:42;58.50;;;24.20;;
72611;SDS011;60655;52.182;4.474;2023-02-15T10:09:02;46.00;;;21.35;;
72611;SDS011;60655;52.182;4.474;2023-02-15T10:11:27;50.90;;;23.48;;
72611;SDS011;60655;52.182;4.474;2023-02-15T10:13:44;50.83;;;22.52;;
72611;SDS011;60655;52.182;4.474;2023-02-15T10:16:10;51.95;;;22.13;;
72611;SDS011;60655;52.182;4.474;2023-02-15T10:18:55;51.95;;;23.27;;
72611;SDS011;60655;52.182;4.474;2023-02-15T10:21:23;57.75;;;23.80;;
72611;SDS011;60655;52.182;4.474;2023-02-15T10:26:20;53.95;;;23.45;;
72611;SDS011;60655;52.182;4.474;2023-02-15T10:28:42;53.72;;;23.58;;
72611;SDS011;60655;52.182;4.474;2023-02-15T10:31:06;51.13;;;21.73;;
72611;SDS011;60655;52.182;4.474;2023-02-15T10:33:28;53.80;;;24.08;;
72611;SDS011;60655;52.182;4.474;2023-02-15T10:38:19;50.25;;;21.67;;
72611;SDS011;60655;52.182;4.474;2023-02-15T10:40:34;51.10;;;23.42;;
72611;SDS011;60655;52.182;4.474;2023-02-15T10:54:21;56.88;;;25.27;;
72611;SDS011;60655;52.182;4.474;2023-02-15T10:56:48;50.90;;;23.23;;
72611;SDS011;60655;52.182;4.474;2023-02-15T10:59:13;59.65;;;26.73;;
72611;SDS011;60655;52.182;4.474;2023-02-15T11:01:20;50.85;;;25.65;;
72611;SDS011;60655;52.182;4.474;2023-02-15T11:07:41;51.17;;;21.88;;
72611;SDS011;60655;52.182;4.474;2023-02-15T11:09:49;50.55;;;22.38;;
72611;SDS011;60655;52.182;4.474;2023-02-15T11:11:55;59.95;;;25.73;;
72611;SDS011;60655;52.182;4.474;2023-02-15T11:14:04;54.33;;;25.05;;
72611;SDS011;60655;52.182;4.474;2023-02-15T11:16:15;52.45;;;24.33;;
72611;SDS011;60655;52.182;4.474;2023-02-15T11:20:37;54.75;;;23.27;;
72611;SDS011;60655;52.182;4.474;2023-02-15T11:22:44;50.42;;;22.92;;
72611;SDS011;60655;52.182;4.474;2023-02-15T11:24:48;52.13;;;22.35;;
72611;SDS011;60655;52.182;4.474;2023-02-15T11:26:51;54.50;;;25.65;;
72611;SDS011;60655;52.182;4.474;2023-02-15T11:28:56;53.80;;;24.55;;
72611;SDS011;60655;52.182;4.474;2023-02-15T11:31:21;47.38;;;23.50;;
72611;SDS011;60655;52.182;4.474;2023-02-15T11:33:35;56.70;;;25.50;;
72611;SDS011;60655;52.182;4.474;2023-02-15T11:35:45;57.63;;;26.88;;
72611;SDS011;60655;52.182;4.474;2023-02-15T11:40:15;51.50;;;23.27;;
72611;SDS011;60655;52.182;4.474;2023-02-15T11:42:23;51.67;;;23.00;;
72611;SDS011;60655;52.182;4.474;2023-02-15T11:44:27;58.15;;;26.83;;
72611;SDS011;60655;52.182;4.474;2023-02-15T11:46:33;51.38;;;23.40;;
72611;SDS011;60655;52.182;4.474;2023-02-15T11:48:34;57.15;;;25.20;;
72611;SDS011;60655;52.182;4.474;2023-02-15T11:52:36;45.75;;;20.50;;
72611;SDS011;60655;52.182;4.474;2023-02-15T11:56:41;51.67;;;22.70;;
72611;SDS011;60655;52.182;4.474;2023-02-15T12:00:46;48.03;;;22.15;;
72611;SDS011;60655;52.182;4.474;2023-02-15T12:02:53;53.20;;;24.80;;
72611;SDS011;60655;52.182;4.474;2023-02-15T12:04:59;50.30;;;23.02;;
72611;SDS011;60655;52.182;4.474;2023-02-15T12:11:35;50.25;;;22.60;;
72611;SDS011;60655;52.182;4.474;2023-02-15T12:13:57;53.78;;;25.25;;
72611;SDS011;60655;52.182;4.474;2023-02-15T12:16:06;57.67;;;26.42;;
72611;SDS011;60655;52.182;4.474;2023-02-15T12:18:19;53.13;;;25.33;;
72611;SDS011;60655;52.182;4.474;2023-02-15T12:20:41;57.42;;;24.65;;
72611;SDS011;60655;52.182;4.474;2023-02-15T12:23:03;51.03;;;23.63;;
72611;SDS011;60655;52.182;4.474;2023-02-15T12:25:22;47.42;;;22.70;;
72611;SDS011;60655;52.182;4.474;2023-02-15T12:27:30;53.38;;;22.65;;
72611;SDS011;60655;52.182;4.474;2023-02-15T12:29:41;50.92;;;22.67;;
72611;SDS011;60655;52.182;4.474;2023-02-15T12:31:45;50.00;;;23.52;;
72611;SDS011;60655;52.182;4.474;2023-02-15T12:33:51;51.13;;;22.90;;
72611;SDS011;60655;52.182;4.474;2023-02-15T12:36:15;54.78;;;27.27;;
72611;SDS011;60655;52.182;4.474;2023-02-15T12:38:23;56.85;;;26.35;;
72611;SDS011;60655;52.182;4.474;2023-02-15T12:40:27;49.95;;;24.15;;
72611;SDS011;60655;52.182;4.474;2023-02-15T12:42:40;55.53;;;22.67;;
72611;SDS011;60655;52.182;4.474;2023-02-15T12:51:20;46.85;;;21.33;;
72611;SDS011;60655;52.182;4.474;2023-02-15T12:53:32;46.85;;;21.35;;
72611;SDS011;60655;52.182;4.474;2023-02-15T12:55:34;51.22;;;23.00;;
72611;SDS011;60655;52.182;4.474;2023-02-15T12:57:35;48.47;;;22.00;;
72611;SDS011;60655;52.182;4.474;2023-02-15T12:59:36;52.03;;;22.95;;
72611;SDS011;60655;52.182;4.474;2023-02-15T13:01:38;55.92;;;24.30;;
72611;SDS011;60655;52.182;4.474;2023-02-15T13:06:15;47.47;;;20.88;;
72611;SDS011;60655;52.182;4.474;2023-02-15T13:08:19;50.22;;;20.73;;
72611;SDS011;60655;52.182;4.474;2023-02-15T13:10:35;49.72;;;23.13;;
72611;SDS011;60655;52.182;4.474;2023-02-15T13:12:40;50.53;;;22.85;;
72611;SDS011;60655;52.182;4.474;2023-02-15T13:14:48;46.25;;;20.80;;
72611;SDS011;60655;52.182;4.474;2023-02-15T13:16:56;56.28;;;21.67;;
72611;SDS011;60655;52.182;4.474;2023-02-15T13:19:02;45.25;;;20.98;;
72611;SDS011;60655;52.182;4.474;2023-02-15T13:21:14;45.95;;;21.02;;
72611;SDS011;60655;52.182;4.474;2023-02-15T13:23:28;35.20;;;16.90;;
72611;SDS011;60655;52.182;4.474;2023-02-15T13:25:32;50.45;;;22.02;;
72611;SDS011;60655;52.182;4.474;2023-02-15T13:27:40;51.45;;;22.73;;
72611;SDS011;60655;52.182;4.474;2023-02-15T13:29:47;47.33;;;20.65;;
72611;SDS011;60655;52.182;4.474;2023-02-15T13:31:52;44.65;;;19.20;;
72611;SDS011;60655;52.182;4.474;2023-02-15T13:34:03;49.67;;;21.25;;
72611;SDS011;60655;52.182;4.474;2023-02-15T13:36:29;51.72;;;21.95;;
72611;SDS011;60655;52.182;4.474;2023-02-15T13:41:00;49.25;;;21.40;;
72611;SDS011;60655;52.182;4.474;2023-02-15T13:43:05;46.65;;;21.75;;
72611;SDS011;60655;52.182;4.474;2023-02-15T13:52:21;47.15;;;21.83;;
72611;SDS011;60655;52.182;4.474;2023-02-15T14:04:16;48.00;;;22.42;;
72611;SDS011;60655;52.182;4.474;2023-02-15T14:06:44;38.88;;;17.15;;
72611;SDS011;60655;52.182;4.474;2023-02-15T14:09:01;47.08;;;20.75;;
72611;SDS011;60655;52.182;4.474;2023-02-15T14:16:27;43.25;;;20.80;;
72611;SDS011;60655;52.182;4.474;2023-02-15T14:25:41;42.63;;;19.25;;
72611;SDS011;60655;52.182;4.474;2023-02-15T14:30:20;53.40;;;22.77;;
72611;SDS011;60655;52.182;4.474;2023-02-15T14:32:34;48.05;;;23.33;;
72611;SDS011;60655;52.182;4.474;2023-02-15T14:34:50;47.88;;;21.95;;
72611;SDS011;60655;52.182;4.474;2023-02-15T14:36:54;52.08;;;22.55;;
72611;SDS011;60655;52.182;4.474;2023-02-15T14:39:06;54.25;;;23.83;;
72611;SDS011;60655;52.182;4.474;2023-02-15T14:41:43;47.22;;;20.60;;